createdAt,value
2019-03-30T00:01:53.070Z,5.70
2019-03-30T00:04:23.343Z,5.70
2019-03-30T00:06:53.552Z,5.70
2019-03-30T00:09:23.799Z,5.70
2019-03-30T00:11:53.988Z,5.70
2019-03-30T00:14:24.249Z,5.60
2019-03-30T00:16:54.431Z,5.60
2019-03-30T00:19:34.856Z,5.60
2019-03-30T00:21:56.622Z,5.60
2019-03-30T00:24:26.846Z,5.60
2019-03-30T00:26:57.076Z,5.60
2019-03-30T00:29:27.271Z,5.60
2019-03-30T00:31:57.547Z,5.60
2019-03-30T00:34:27.718Z,5.60
2019-03-30T00:36:57.978Z,5.60
2019-03-30T00:39:28.160Z,5.60
2019-03-30T00:41:58.421Z,5.60
2019-03-30T00:44:28.806Z,5.50
2019-03-30T00:46:59.073Z,5.50
2019-03-30T00:49:29.285Z,5.50
2019-03-30T00:51:59.510Z,5.50
2019-03-30T00:54:29.711Z,5.40
2019-03-30T00:57:00.962Z,5.40
2019-03-30T00:59:31.207Z,5.40
2019-03-30T01:02:01.425Z,5.40
2019-03-30T01:04:31.695Z,5.40
2019-03-30T01:07:02.059Z,5.40
2019-03-30T01:09:32.271Z,5.50
2019-03-30T01:12:02.670Z,5.50
2019-03-30T01:14:33.843Z,5.50
2019-03-30T01:17:04.763Z,5.50
2019-03-30T01:19:34.987Z,5.50
2019-03-30T01:22:05.408Z,5.50
2019-03-30T01:24:35.659Z,5.50
2019-03-30T01:27:06.160Z,5.50
2019-03-30T01:29:36.413Z,5.50
2019-03-30T01:32:06.632Z,5.50
2019-03-30T01:34:36.843Z,5.50
2019-03-30T01:37:07.071Z,5.50
2019-03-30T01:39:37.296Z,5.40
2019-03-30T01:42:07.610Z,5.40
2019-03-30T01:44:37.863Z,5.40
2019-03-30T01:47:08.230Z,5.40
2019-03-30T01:49:38.630Z,5.30
2019-03-30T01:52:08.819Z,5.30
2019-03-30T01:54:39.018Z,5.30
2019-03-30T01:57:09.270Z,5.40
2019-03-30T01:59:39.442Z,5.40
2019-03-30T02:02:09.712Z,5.30
2019-03-30T02:04:39.922Z,5.30
2019-03-30T02:07:10.187Z,5.30
2019-03-30T02:09:40.463Z,5.20
2019-03-30T02:12:10.752Z,5.20
2019-03-30T02:14:41.099Z,5.10
2019-03-30T02:17:11.360Z,5.10
2019-03-30T02:19:41.629Z,5.10
2019-03-30T02:22:11.918Z,5.00
2019-03-30T02:24:42.113Z,5.00
2019-03-30T02:27:12.499Z,5.00
2019-03-30T02:29:42.803Z,4.90
2019-03-30T02:32:12.984Z,4.90
2019-03-30T02:34:43.212Z,4.80
2019-03-30T02:37:14.516Z,4.80
2019-03-30T02:39:44.784Z,4.80
2019-03-30T02:42:14.988Z,4.70
2019-03-30T02:44:45.215Z,4.70
2019-03-30T02:47:15.519Z,4.70
2019-03-30T02:49:45.768Z,4.70
2019-03-30T02:52:16.029Z,4.70
2019-03-30T02:54:46.388Z,4.70
2019-03-30T02:57:16.900Z,4.70
2019-03-30T02:59:47.156Z,4.70
2019-03-30T03:02:17.382Z,4.70
2019-03-30T03:04:47.728Z,4.70
2019-03-30T03:07:18.051Z,4.60
2019-03-30T03:09:48.384Z,4.60
2019-03-30T03:12:18.584Z,4.60
2019-03-30T03:14:48.834Z,4.60
2019-03-30T03:17:20.058Z,4.60
2019-03-30T03:19:50.355Z,4.50
2019-03-30T03:22:21.946Z,4.50
2019-03-30T03:24:52.300Z,4.50
2019-03-30T03:27:22.729Z,4.50
2019-03-30T03:29:53.079Z,4.50
2019-03-30T03:32:23.345Z,4.40
2019-03-30T03:34:53.655Z,4.40
2019-03-30T03:37:23.966Z,4.40
2019-03-30T03:39:54.192Z,4.40
2019-03-30T03:42:24.614Z,4.40
2019-03-30T03:44:54.849Z,4.30
2019-03-30T03:47:25.186Z,4.30
2019-03-30T03:49:55.391Z,4.30
2019-03-30T03:52:25.787Z,4.30
2019-03-30T03:54:56.408Z,4.30
2019-03-30T03:57:28.288Z,4.30
2019-03-30T03:59:59.308Z,4.20
2019-03-30T04:02:34.199Z,4.20
2019-03-30T04:05:05.296Z,4.20
2019-03-30T04:07:37.092Z,4.10
2019-03-30T04:10:07.716Z,4.10
2019-03-30T04:12:39.991Z,4.10
2019-03-30T04:15:13.253Z,4.10
2019-03-30T04:17:44.052Z,4.00
2019-03-30T04:20:17.649Z,4.00
2019-03-30T04:22:47.832Z,3.90
2019-03-30T04:25:18.056Z,3.90
2019-03-30T04:27:48.365Z,3.90
2019-03-30T04:30:18.595Z,3.90
2019-03-30T04:32:48.892Z,3.90
2019-03-30T04:35:19.165Z,3.90
2019-03-30T04:37:49.418Z,3.90
2019-03-30T04:40:19.865Z,3.90
2019-03-30T04:42:50.205Z,3.90
2019-03-30T04:45:20.504Z,3.90
2019-03-30T04:47:51.706Z,3.90
2019-03-30T04:50:21.927Z,3.90
2019-03-30T04:52:52.319Z,3.90
2019-03-30T04:55:22.646Z,3.90
2019-03-30T04:57:53.528Z,3.90
2019-03-30T05:00:23.715Z,3.90
2019-03-30T05:02:53.895Z,4.00
2019-03-30T05:05:24.492Z,4.00
2019-03-30T05:07:54.705Z,4.00
2019-03-30T05:10:24.911Z,4.10
2019-03-30T05:12:55.163Z,4.10
2019-03-30T05:15:25.403Z,4.10
2019-03-30T05:17:55.671Z,4.10
2019-03-30T05:20:25.920Z,4.20
2019-03-30T05:22:56.312Z,4.20
2019-03-30T05:25:26.583Z,4.20
2019-03-30T05:27:56.871Z,4.30
2019-03-30T05:30:27.097Z,4.30
2019-03-30T05:33:05.662Z,4.30
2019-03-30T05:35:29.287Z,4.40
2019-03-30T05:38:01.434Z,4.40
2019-03-30T05:40:31.487Z,4.40
2019-03-30T05:43:01.701Z,4.40
2019-03-30T05:45:31.875Z,4.40
2019-03-30T05:48:02.220Z,4.50
2019-03-30T05:50:32.540Z,4.50
2019-03-30T05:53:02.808Z,4.50
2019-03-30T05:55:32.992Z,4.60
2019-03-30T05:58:03.328Z,4.60
2019-03-30T06:00:33.628Z,4.70
2019-03-30T06:03:03.842Z,4.70
2019-03-30T06:05:34.114Z,4.80
2019-03-30T06:08:04.347Z,4.90
2019-03-30T06:10:34.614Z,4.90
2019-03-30T06:13:04.936Z,5.00
2019-03-30T06:15:35.215Z,5.10
2019-03-30T06:18:06.462Z,5.20
2019-03-30T06:20:36.844Z,5.20
2019-03-30T06:23:07.045Z,5.30
2019-03-30T06:25:37.352Z,5.40
2019-03-30T06:28:07.539Z,5.50
2019-03-30T06:30:37.749Z,5.60
2019-03-30T06:33:08.074Z,5.70
2019-03-30T06:35:38.321Z,5.80
2019-03-30T06:38:08.948Z,6.00
2019-03-30T06:40:39.211Z,6.10
2019-03-30T06:43:12.217Z,6.20
2019-03-30T06:45:45.260Z,6.30
2019-03-30T06:48:16.451Z,6.40
2019-03-30T06:50:46.827Z,6.50
2019-03-30T06:53:19.515Z,6.60
2019-03-30T06:55:50.816Z,6.70
2019-03-30T06:58:21.256Z,6.80
2019-03-30T07:00:52.862Z,6.90
2019-03-30T07:03:23.921Z,7.00
2019-03-30T07:05:56.539Z,7.10
2019-03-30T07:08:29.558Z,7.20
2019-03-30T07:11:01.131Z,7.30
2019-03-30T07:13:34.080Z,7.40
2019-03-30T07:16:05.483Z,7.50
2019-03-30T07:18:36.559Z,7.60
2019-03-30T07:21:06.804Z,7.70
2019-03-30T07:23:37.285Z,7.80
2019-03-30T07:26:07.643Z,7.90
2019-03-30T07:28:38.091Z,8.00
2019-03-30T07:31:08.375Z,8.00
2019-03-30T07:33:38.715Z,8.20
2019-03-30T07:36:08.909Z,8.20
2019-03-30T07:38:39.159Z,8.30
2019-03-30T07:41:09.372Z,8.40
2019-03-30T07:43:39.654Z,8.50
2019-03-30T07:46:10.042Z,8.60
2019-03-30T07:48:40.303Z,8.70
2019-03-30T07:51:10.555Z,8.80
2019-03-30T07:53:44.752Z,8.90
2019-03-30T07:56:12.728Z,9.00
2019-03-30T07:58:42.968Z,9.20
2019-03-30T08:01:13.274Z,9.30
2019-03-30T08:03:43.679Z,9.40
2019-03-30T08:06:13.973Z,9.50
2019-03-30T08:08:44.202Z,9.70
2019-03-30T08:11:14.601Z,9.80
2019-03-30T08:13:45.023Z,9.90
2019-03-30T08:16:15.245Z,10.00
2019-03-30T08:18:45.615Z,10.10
2019-03-30T08:21:15.885Z,10.30
2019-03-30T08:23:46.116Z,10.40
2019-03-30T08:26:16.400Z,10.60
2019-03-30T08:28:46.684Z,10.80
2019-03-30T08:31:16.854Z,11.00
2019-03-30T08:33:47.062Z,11.10
2019-03-30T08:36:17.350Z,11.20
2019-03-30T08:38:47.570Z,11.40
2019-03-30T08:41:17.763Z,11.50
2019-03-30T08:43:47.959Z,11.70
2019-03-30T08:46:18.279Z,11.80
2019-03-30T08:48:49.624Z,12.00
2019-03-30T08:51:20.924Z,12.10
2019-03-30T08:53:54.770Z,12.20
2019-03-30T08:56:23.374Z,12.30
2019-03-30T08:58:53.702Z,12.40
2019-03-30T09:01:23.936Z,12.60
2019-03-30T09:03:54.257Z,12.70
2019-03-30T09:06:24.545Z,12.80
2019-03-30T09:08:54.823Z,13.00
2019-03-30T09:11:25.034Z,13.10
2019-03-30T09:13:55.272Z,13.30
2019-03-30T09:16:25.471Z,13.50
2019-03-30T09:18:55.668Z,13.60
2019-03-30T09:21:25.919Z,13.80
2019-03-30T09:24:08.950Z,13.90
2019-03-30T09:26:28.148Z,14.00
2019-03-30T09:28:58.347Z,14.20
2019-03-30T09:31:29.563Z,14.30
2019-03-30T09:34:01.456Z,14.40
2019-03-30T09:36:31.741Z,14.50
2019-03-30T09:39:02.015Z,14.60
2019-03-30T09:41:34.900Z,14.70
2019-03-30T09:44:05.373Z,14.80
2019-03-30T09:46:35.628Z,14.90
2019-03-30T09:49:05.875Z,15.10
2019-03-30T09:51:36.155Z,15.20
2019-03-30T09:54:06.407Z,15.30
2019-03-30T09:56:36.607Z,15.40
2019-03-30T09:59:06.796Z,15.60
2019-03-30T10:01:37.045Z,15.70
2019-03-30T10:04:07.387Z,15.80
2019-03-30T10:06:37.618Z,16.00
2019-03-30T10:09:08.088Z,16.20
2019-03-30T10:11:38.493Z,16.30
2019-03-30T10:14:08.684Z,16.50
2019-03-30T10:16:38.907Z,16.60
2019-03-30T10:19:09.224Z,16.80
2019-03-30T10:21:40.604Z,16.90
2019-03-30T10:24:10.847Z,17.00
2019-03-30T10:26:41.159Z,17.10
2019-03-30T10:29:11.475Z,17.10
2019-03-30T10:31:42.009Z,17.10
2019-03-30T10:34:13.250Z,17.10
2019-03-30T10:36:43.514Z,17.20
2019-03-30T10:39:13.839Z,17.20
2019-03-30T10:41:44.013Z,17.10
2019-03-30T10:44:14.216Z,17.10
2019-03-30T10:46:44.497Z,17.00
2019-03-30T10:49:14.756Z,17.10
2019-03-30T10:51:44.995Z,17.00
2019-03-30T10:54:15.211Z,17.00
2019-03-30T10:56:45.895Z,17.10
2019-03-30T10:59:16.159Z,17.00
2019-03-30T11:01:46.391Z,17.10
2019-03-30T11:04:16.591Z,17.20
2019-03-30T11:06:46.769Z,17.20
2019-03-30T11:09:17.048Z,17.10
2019-03-30T11:11:47.284Z,17.10
2019-03-30T11:14:17.482Z,17.00
2019-03-30T11:16:47.793Z,17.00
2019-03-30T11:19:18.975Z,16.90
2019-03-30T11:21:49.196Z,16.90
2019-03-30T11:24:19.383Z,16.90
2019-03-30T11:26:49.634Z,17.00
2019-03-30T11:29:19.919Z,17.20
2019-03-30T11:31:51.192Z,17.30
2019-03-30T11:34:21.452Z,17.40
2019-03-30T11:36:51.623Z,17.40
2019-03-30T11:39:21.847Z,17.20
2019-03-30T11:41:52.076Z,17.10
2019-03-30T11:44:22.296Z,17.10
2019-03-30T11:46:52.526Z,17.20
2019-03-30T11:49:22.805Z,17.30
2019-03-30T11:51:52.986Z,17.20
2019-03-30T11:54:23.239Z,17.20
2019-03-30T11:56:53.634Z,17.20
2019-03-30T11:59:23.872Z,17.10
2019-03-30T12:01:55.272Z,17.10
2019-03-30T12:04:25.520Z,17.10
2019-03-30T12:06:56.005Z,17.10
2019-03-30T12:09:26.277Z,17.10
2019-03-30T12:11:56.504Z,17.00
2019-03-30T12:14:26.770Z,17.00
2019-03-30T12:16:56.962Z,17.00
2019-03-30T12:19:27.256Z,17.00
2019-03-30T12:21:57.547Z,17.10
2019-03-30T12:24:27.792Z,17.10
2019-03-30T12:26:58.035Z,17.20
2019-03-30T12:29:28.256Z,17.40
2019-03-30T12:31:58.443Z,17.40
2019-03-30T12:34:28.639Z,17.50
2019-03-30T12:36:58.893Z,17.40
2019-03-30T12:39:29.204Z,17.40
2019-03-30T12:41:59.515Z,17.40
2019-03-30T12:44:29.703Z,17.50
2019-03-30T12:47:00.993Z,17.40
2019-03-30T12:49:31.255Z,17.40
2019-03-30T12:52:01.451Z,17.40
2019-03-30T12:54:31.755Z,17.50
2019-03-30T12:57:01.998Z,17.60
2019-03-30T12:59:32.184Z,17.70
2019-03-30T13:02:03.442Z,17.70
2019-03-30T13:04:33.659Z,17.70
2019-03-30T13:07:04.003Z,17.60
2019-03-30T13:09:34.915Z,17.60
2019-03-30T13:12:06.316Z,17.50
2019-03-30T13:14:36.894Z,17.30
2019-03-30T13:17:07.164Z,17.20
2019-03-30T13:19:37.355Z,17.20
2019-03-30T13:22:07.531Z,17.20
2019-03-30T13:24:37.787Z,17.20
2019-03-30T13:27:08.091Z,17.20
2019-03-30T13:29:39.392Z,17.10
2019-03-30T13:32:09.652Z,17.10
2019-03-30T13:34:39.854Z,17.00
2019-03-30T13:37:19.503Z,17.00
2019-03-30T13:39:49.877Z,17.00
2019-03-30T13:42:20.215Z,17.10
2019-03-30T13:44:50.411Z,17.20
2019-03-30T13:47:20.675Z,17.30
2019-03-30T13:49:50.924Z,17.30
2019-03-30T13:52:21.164Z,17.30
2019-03-30T13:54:51.376Z,17.30
2019-03-30T13:57:21.645Z,17.30
2019-03-30T13:59:51.923Z,17.30
2019-03-30T14:02:22.107Z,17.30
2019-03-30T14:04:52.716Z,17.30
2019-03-30T14:07:23.016Z,17.30
2019-03-30T14:09:54.490Z,17.30
2019-03-30T14:12:24.732Z,17.30
2019-03-30T14:14:55.100Z,17.20
2019-03-30T14:17:26.295Z,17.30
2019-03-30T14:19:56.577Z,17.30
2019-03-30T14:22:27.048Z,17.40
2019-03-30T14:24:57.398Z,17.30
2019-03-30T14:27:27.638Z,17.20
2019-03-30T14:29:57.843Z,17.00
2019-03-30T14:32:28.055Z,16.90
2019-03-30T14:34:58.354Z,16.90
2019-03-30T14:37:28.609Z,16.80
2019-03-30T14:39:58.846Z,16.70
2019-03-30T14:42:29.040Z,16.70
2019-03-30T14:44:59.300Z,16.60
2019-03-30T14:47:29.479Z,16.60
2019-03-30T14:49:59.659Z,16.60
2019-03-30T14:52:29.927Z,16.50
2019-03-30T14:55:00.181Z,16.50
2019-03-30T14:57:30.487Z,16.50
2019-03-30T15:00:00.718Z,16.40
2019-03-30T15:02:32.875Z,16.40
2019-03-30T15:05:03.094Z,16.50
2019-03-30T15:07:33.336Z,16.50
2019-03-30T15:10:03.672Z,16.50
2019-03-30T15:12:33.912Z,16.50
2019-03-30T15:15:04.412Z,16.50
2019-03-30T15:17:34.626Z,16.50
2019-03-30T15:20:05.243Z,16.40
2019-03-30T15:22:35.590Z,16.40
2019-03-30T15:25:07.158Z,16.20
2019-03-30T15:27:37.456Z,16.20
2019-03-30T15:30:08.178Z,16.20
2019-03-30T15:32:38.531Z,16.20
2019-03-30T15:35:08.875Z,16.20
2019-03-30T15:37:39.050Z,16.20
2019-03-30T15:40:09.499Z,16.20
2019-03-30T15:42:40.387Z,16.10
2019-03-30T15:45:11.730Z,16.10
2019-03-30T15:47:41.995Z,16.00
2019-03-30T15:50:12.900Z,15.90
2019-03-30T15:52:43.168Z,15.90
2019-03-30T15:55:13.440Z,15.90
2019-03-30T15:57:44.805Z,15.80
2019-03-30T16:00:16.602Z,15.80
2019-03-30T16:02:46.810Z,15.80
2019-03-30T16:05:17.203Z,15.70
2019-03-30T16:07:47.462Z,15.70
2019-03-30T16:10:17.990Z,15.50
2019-03-30T16:12:48.211Z,15.30
2019-03-30T16:15:18.505Z,15.20
2019-03-30T16:17:48.751Z,15.10
2019-03-30T16:20:19.239Z,15.00
2019-03-30T16:22:49.510Z,14.90
2019-03-30T16:25:19.778Z,15.00
2019-03-30T16:27:50.073Z,14.90
2019-03-30T16:30:20.524Z,14.90
2019-03-30T16:32:50.795Z,14.90
2019-03-30T16:35:20.995Z,14.90
2019-03-30T16:37:51.335Z,14.90
2019-03-30T16:40:21.715Z,14.90
2019-03-30T16:42:52.152Z,14.80
2019-03-30T16:45:22.369Z,14.80
2019-03-30T16:47:52.728Z,14.70
2019-03-30T16:50:22.951Z,14.60
2019-03-30T16:52:53.215Z,14.50
2019-03-30T16:55:23.483Z,14.40
2019-03-30T16:57:53.687Z,14.30
2019-03-30T17:00:25.137Z,14.10
2019-03-30T17:02:55.334Z,14.00
2019-03-30T17:05:25.536Z,13.80
2019-03-30T17:07:55.703Z,13.70
2019-03-30T17:10:25.895Z,13.50
2019-03-30T17:12:56.121Z,13.40
2019-03-30T17:15:26.314Z,13.40
2019-03-30T17:17:56.531Z,13.40
2019-03-30T17:20:26.779Z,13.30
2019-03-30T17:22:58.811Z,13.20
2019-03-30T17:25:29.103Z,13.10
2019-03-30T17:27:59.392Z,13.10
2019-03-30T17:30:29.656Z,13.00
2019-03-30T17:32:59.836Z,12.90
2019-03-30T17:35:30.042Z,12.90
2019-03-30T17:38:00.218Z,12.80
2019-03-30T17:40:31.378Z,12.70
2019-03-30T17:43:01.617Z,12.60
2019-03-30T17:45:31.790Z,12.50
2019-03-30T17:48:02.057Z,12.40
2019-03-30T17:50:32.307Z,12.30
2019-03-30T17:53:02.503Z,12.30
2019-03-30T17:55:34.247Z,12.20
2019-03-30T17:58:12.759Z,12.10
2019-03-30T18:00:37.474Z,12.00
2019-03-30T18:03:07.700Z,11.90
2019-03-30T18:05:37.934Z,11.80
2019-03-30T18:08:08.141Z,11.70
2019-03-30T18:10:39.645Z,11.60
2019-03-30T18:13:09.927Z,11.60
2019-03-30T18:15:40.225Z,11.50
2019-03-30T18:18:10.460Z,11.50
2019-03-30T18:20:40.717Z,11.40
2019-03-30T18:23:10.912Z,11.50
2019-03-30T18:25:41.152Z,11.40
2019-03-30T18:28:11.356Z,11.40
2019-03-30T18:30:41.775Z,11.30
2019-03-30T18:33:13.388Z,11.30
2019-03-30T18:35:43.838Z,11.20
2019-03-30T18:38:14.067Z,11.20
2019-03-30T18:40:44.466Z,11.10
2019-03-30T18:43:14.667Z,11.20
2019-03-30T18:45:45.040Z,11.10
2019-03-30T18:48:18.849Z,11.00
2019-03-30T18:50:49.549Z,11.00
2019-03-30T18:53:19.887Z,10.90
2019-03-30T18:55:50.271Z,10.80
2019-03-30T18:58:20.484Z,10.80
2019-03-30T19:00:50.701Z,10.70
2019-03-30T19:03:25.311Z,10.60
2019-03-30T19:05:55.552Z,10.60
2019-03-30T19:08:25.798Z,10.50
2019-03-30T19:10:56.153Z,10.40
2019-03-30T19:13:26.455Z,10.30
2019-03-30T19:15:56.847Z,10.20
2019-03-30T19:18:27.279Z,10.10
2019-03-30T19:20:57.627Z,10.10
2019-03-30T19:23:28.084Z,10.00
2019-03-30T19:25:58.360Z,9.90
2019-03-30T19:28:28.903Z,9.90
2019-03-30T19:30:59.264Z,9.90
2019-03-30T19:33:29.579Z,9.80
2019-03-30T19:36:00.945Z,9.80
2019-03-30T19:38:31.438Z,9.80
2019-03-30T19:41:01.808Z,9.70
2019-03-30T19:43:32.070Z,9.70
2019-03-30T19:46:02.297Z,9.70
2019-03-30T19:48:32.637Z,9.70
2019-03-30T19:51:02.931Z,9.70
2019-03-30T19:53:33.187Z,9.60
2019-03-30T19:56:05.486Z,9.60
2019-03-30T19:58:35.759Z,9.60
2019-03-30T20:01:06.391Z,9.50
2019-03-30T20:03:36.724Z,9.50
2019-03-30T20:06:06.938Z,9.40
2019-03-30T20:08:37.114Z,9.40
2019-03-30T20:11:07.399Z,9.40
2019-03-30T20:13:37.697Z,9.30
2019-03-30T20:16:07.992Z,9.30
2019-03-30T20:18:38.283Z,9.20
2019-03-30T20:21:08.563Z,9.10
2019-03-30T20:23:38.851Z,9.10
2019-03-30T20:26:09.144Z,9.00
2019-03-30T20:28:39.398Z,9.00
2019-03-30T20:31:09.712Z,9.00
2019-03-30T20:33:39.981Z,8.90
2019-03-30T20:36:10.452Z,8.90
2019-03-30T20:38:40.751Z,8.80
2019-03-30T20:41:11.122Z,8.80
2019-03-30T20:43:41.354Z,8.80
2019-03-30T20:46:11.656Z,8.80
2019-03-30T20:48:41.899Z,8.70
2019-03-30T20:51:12.295Z,8.70
2019-03-30T20:53:42.548Z,8.70
2019-03-30T20:56:12.801Z,8.70
2019-03-30T20:58:43.480Z,8.60
2019-03-30T21:01:13.742Z,8.60
2019-03-30T21:03:43.942Z,8.50
2019-03-30T21:06:15.202Z,8.50
2019-03-30T21:08:45.427Z,8.50
2019-03-30T21:11:15.672Z,8.40
2019-03-30T21:13:45.831Z,8.40
2019-03-30T21:16:16.024Z,8.40
2019-03-30T21:18:46.307Z,8.40
2019-03-30T21:21:16.593Z,8.30
2019-03-30T21:23:46.909Z,8.30
2019-03-30T21:26:17.190Z,8.30
2019-03-30T21:28:47.703Z,8.20
2019-03-30T21:31:17.996Z,8.20
2019-03-30T21:33:48.230Z,8.20
2019-03-30T21:36:18.779Z,8.20
2019-03-30T21:38:49.035Z,8.10
2019-03-30T21:41:19.282Z,8.10
2019-03-30T21:43:49.628Z,8.00
2019-03-30T21:46:19.886Z,8.00
2019-03-30T21:48:50.075Z,8.00
2019-03-30T21:51:20.251Z,8.00
2019-03-30T21:53:50.476Z,8.00
2019-03-30T21:56:20.768Z,7.90
2019-03-30T21:58:52.016Z,7.90
2019-03-30T22:01:22.339Z,7.80
2019-03-30T22:03:52.546Z,7.80
2019-03-30T22:06:22.812Z,7.80
2019-03-30T22:08:54.001Z,7.70
2019-03-30T22:11:24.192Z,7.70
2019-03-30T22:13:54.459Z,7.70
2019-03-30T22:16:24.640Z,7.60
2019-03-30T22:18:54.924Z,7.50
2019-03-30T22:21:25.145Z,7.40
2019-03-30T22:23:55.340Z,7.40
2019-03-30T22:26:26.005Z,7.30
2019-03-30T22:28:56.200Z,7.20
2019-03-30T22:31:26.475Z,7.20
2019-03-30T22:33:56.826Z,7.20
2019-03-30T22:36:28.058Z,7.10
2019-03-30T22:38:58.231Z,7.10
2019-03-30T22:41:28.471Z,7.10
2019-03-30T22:43:58.654Z,7.10
2019-03-30T22:46:28.888Z,7.10
2019-03-30T22:48:59.079Z,7.10
2019-03-30T22:51:29.351Z,7.10
2019-03-30T22:53:59.691Z,7.10
2019-03-30T22:56:29.887Z,7.00
2019-03-30T22:59:00.076Z,7.00
2019-03-30T23:01:30.587Z,7.00
2019-03-30T23:04:00.748Z,7.00
2019-03-30T23:06:30.990Z,7.00
2019-03-30T23:09:01.291Z,7.00
2019-03-30T23:11:32.764Z,7.00
2019-03-30T23:14:02.951Z,7.00
2019-03-30T23:16:33.539Z,7.00
2019-03-30T23:19:03.877Z,7.00
2019-03-30T23:21:34.185Z,7.00
2019-03-30T23:24:04.531Z,7.00
2019-03-30T23:26:34.871Z,7.00
2019-03-30T23:29:05.224Z,7.00
2019-03-30T23:31:35.523Z,7.00
2019-03-30T23:34:05.856Z,7.00
2019-03-30T23:36:36.118Z,7.00
2019-03-30T23:39:07.865Z,7.00
2019-03-30T23:41:38.061Z,7.00
2019-03-30T23:44:08.427Z,7.00
2019-03-30T23:46:38.634Z,7.00
2019-03-30T23:49:08.837Z,7.10
2019-03-30T23:51:39.211Z,7.10
2019-03-30T23:54:13.895Z,7.10
2019-03-30T23:56:44.123Z,7.10
2019-03-30T23:59:14.387Z,7.10
